createdAt,value
2024-02-13T00:01:31.652Z,3.67
2024-02-13T00:03:33.374Z,1.58
2024-02-13T00:05:35.074Z,2.67
2024-02-13T00:07:38.003Z,1.00
2024-02-13T00:09:39.660Z,1.10
2024-02-13T00:11:42.287Z,1.88
2024-02-13T00:13:43.873Z,1.23
2024-02-13T00:15:45.540Z,1.65
2024-02-13T00:17:48.092Z,1.27
2024-02-13T00:19:50.316Z,1.83
2024-02-13T00:21:52.040Z,1.40
2024-02-13T00:23:53.802Z,1.27
2024-02-13T00:25:55.397Z,1.10
2024-02-13T00:27:57.215Z,1.88
2024-02-13T00:29:58.885Z,1.70
2024-02-13T00:32:00.432Z,1.30
2024-02-13T00:34:02.171Z,0.95
2024-02-13T00:36:04.513Z,1.00
2024-02-13T00:38:06.066Z,1.10
2024-02-13T00:40:09.496Z,1.20
2024-02-13T00:42:11.151Z,1.83
2024-02-13T00:44:12.736Z,2.90
2024-02-13T00:46:14.307Z,1.00
2024-02-13T00:48:17.010Z,1.23
2024-02-13T00:50:18.856Z,1.00
2024-02-13T00:52:20.589Z,1.23
2024-02-13T00:54:22.767Z,1.33
2024-02-13T00:56:24.355Z,1.60
2024-02-13T00:58:26.138Z,1.15
2024-02-13T01:00:27.910Z,1.20
2024-02-13T01:02:29.627Z,1.48
2024-02-13T01:04:31.521Z,1.40
2024-02-13T01:06:34.559Z,0.98
2024-02-13T01:08:36.595Z,1.52
2024-02-13T01:10:38.417Z,1.15
2024-02-13T01:12:40.119Z,0.90
2024-02-13T01:14:41.701Z,1.00
2024-02-13T01:16:43.246Z,1.00
2024-02-13T01:18:45.354Z,1.48
2024-02-13T01:20:47.095Z,1.02
2024-02-13T01:22:48.687Z,0.85
2024-02-13T01:24:50.290Z,1.05
2024-02-13T01:26:51.882Z,1.00
2024-02-13T01:28:53.429Z,0.90
2024-02-13T01:30:55.146Z,1.17
2024-02-13T01:32:56.826Z,1.00
2024-02-13T01:34:58.739Z,1.00
2024-02-13T01:37:00.566Z,1.15
2024-02-13T01:39:02.287Z,1.08
2024-02-13T01:41:04.075Z,1.05
2024-02-13T01:43:06.089Z,1.40
2024-02-13T01:45:08.696Z,1.00
2024-02-13T01:47:10.359Z,1.15
2024-02-13T01:49:12.838Z,1.10
2024-02-13T01:51:16.820Z,0.90
2024-02-13T01:53:21.327Z,1.33
2024-02-13T01:55:24.289Z,1.20
2024-02-13T01:57:25.886Z,1.27
2024-02-13T01:59:27.868Z,1.00
2024-02-13T02:01:29.454Z,1.00
2024-02-13T02:03:35.678Z,1.92
2024-02-13T02:05:37.878Z,1.00
2024-02-13T02:07:40.917Z,0.90
2024-02-13T02:09:43.742Z,1.17
2024-02-13T02:11:45.469Z,1.10
2024-02-13T02:13:47.004Z,1.10
2024-02-13T02:15:48.452Z,0.98
2024-02-13T02:17:51.198Z,1.05
2024-02-13T02:19:52.708Z,1.00
2024-02-13T02:21:54.160Z,1.00
2024-02-13T02:23:56.165Z,0.95
2024-02-13T02:25:57.711Z,1.00
2024-02-13T02:27:59.163Z,1.00
2024-02-13T02:30:00.879Z,1.00
2024-02-13T02:32:02.393Z,1.20
2024-02-13T02:34:04.031Z,1.00
2024-02-13T02:36:06.285Z,0.90
2024-02-13T02:38:08.243Z,1.10
2024-02-13T02:40:10.118Z,1.27
2024-02-13T02:42:11.930Z,1.08
2024-02-13T02:44:14.142Z,1.33
2024-02-13T02:46:15.689Z,1.05
2024-02-13T02:48:17.321Z,1.20
2024-02-13T02:50:19.080Z,1.20
2024-02-13T02:52:20.590Z,1.20
2024-02-13T02:54:22.083Z,1.02
2024-02-13T02:56:23.576Z,1.48
2024-02-13T02:58:25.109Z,1.23
2024-02-13T03:00:26.998Z,1.38
2024-02-13T03:02:28.457Z,1.45
2024-02-13T03:04:29.993Z,2.00
2024-02-13T03:06:32.434Z,1.75
2024-02-13T03:08:34.109Z,1.38
2024-02-13T03:10:35.608Z,1.10
2024-02-13T03:12:38.154Z,0.95
2024-02-13T03:14:39.725Z,1.10
2024-02-13T03:16:41.238Z,2.08
2024-02-13T03:18:42.921Z,0.90
2024-02-13T03:20:45.281Z,0.82
2024-02-13T03:22:46.785Z,1.13
2024-02-13T03:24:48.436Z,1.48
2024-02-13T03:26:49.936Z,1.05
2024-02-13T03:28:51.504Z,1.17
2024-02-13T03:30:53.019Z,1.52
2024-02-13T03:32:54.750Z,1.00
2024-02-13T03:34:57.831Z,1.38
2024-02-13T03:36:59.829Z,1.25
2024-02-13T03:39:01.311Z,1.30
2024-02-13T03:41:02.790Z,1.50
2024-02-13T03:43:04.767Z,1.20
2024-02-13T03:45:06.636Z,1.08
2024-02-13T03:47:08.101Z,1.00
2024-02-13T03:49:10.368Z,1.42
2024-02-13T03:51:11.913Z,1.40
2024-02-13T03:53:13.643Z,1.70
2024-02-13T03:55:15.488Z,0.90
2024-02-13T03:57:16.961Z,0.85
2024-02-13T03:59:18.601Z,1.73
2024-02-13T04:01:20.118Z,1.05
2024-02-13T04:03:21.583Z,1.00
2024-02-13T04:05:23.230Z,1.20
2024-02-13T04:07:25.036Z,1.25
2024-02-13T04:09:26.488Z,1.40
2024-02-13T04:11:28.135Z,1.33
2024-02-13T04:13:29.739Z,0.80
2024-02-13T04:15:31.206Z,1.23
2024-02-13T04:17:32.770Z,1.45
2024-02-13T04:19:34.395Z,1.35
2024-02-13T04:21:35.897Z,1.10
2024-02-13T04:23:37.625Z,1.42
2024-02-13T04:25:39.199Z,1.00
2024-02-13T04:27:40.680Z,1.23
2024-02-13T04:29:42.466Z,0.77
2024-02-13T04:31:44.020Z,1.45
2024-02-13T04:33:45.821Z,2.30
2024-02-13T04:35:47.711Z,1.20
2024-02-13T04:37:49.193Z,1.40
2024-02-13T04:39:50.662Z,1.02
2024-02-13T04:41:52.264Z,1.00
2024-02-13T04:43:53.759Z,1.30
2024-02-13T04:45:55.199Z,1.13
2024-02-13T04:47:56.742Z,1.63
2024-02-13T04:50:00.941Z,1.42
2024-02-13T04:52:02.399Z,1.92
2024-02-13T04:54:04.158Z,1.52
2024-02-13T04:56:05.849Z,1.23
2024-02-13T04:58:07.331Z,1.75
2024-02-13T05:00:09.330Z,1.05
2024-02-13T05:02:10.858Z,1.70
2024-02-13T05:04:12.454Z,1.40
2024-02-13T05:06:14.757Z,2.28
2024-02-13T05:08:16.856Z,1.35
2024-02-13T05:10:18.376Z,1.25
2024-02-13T05:12:19.970Z,1.60
2024-02-13T05:14:21.598Z,2.00
2024-02-13T05:16:23.966Z,1.95
2024-02-13T05:18:25.837Z,2.10
2024-02-13T05:20:27.527Z,1.50
2024-02-13T05:22:28.992Z,1.45
2024-02-13T05:24:30.576Z,1.00
2024-02-13T05:26:32.129Z,2.30
2024-02-13T05:28:33.609Z,1.75
2024-02-13T05:30:35.430Z,2.25
2024-02-13T05:32:37.309Z,1.67
2024-02-13T05:34:38.893Z,1.77
2024-02-13T05:36:40.402Z,2.15
2024-02-13T05:38:43.455Z,2.55
2024-02-13T05:40:44.918Z,2.28
2024-02-13T05:42:46.536Z,1.80
2024-02-13T05:44:48.256Z,2.13
2024-02-13T05:46:49.817Z,2.20
2024-02-13T05:48:51.286Z,1.70
2024-02-13T05:50:52.933Z,1.55
2024-02-13T05:52:54.568Z,2.70
2024-02-13T05:54:56.348Z,1.95
2024-02-13T05:56:57.932Z,1.92
2024-02-13T05:59:00.074Z,3.08
2024-02-13T06:01:01.839Z,1.27
2024-02-13T06:03:03.811Z,1.52
2024-02-13T06:05:05.711Z,2.15
2024-02-13T06:07:07.319Z,2.92
2024-02-13T06:09:09.040Z,3.60
2024-02-13T06:11:10.654Z,1.95
2024-02-13T06:13:12.310Z,1.85
2024-02-13T06:15:13.851Z,1.55
2024-02-13T06:17:15.360Z,2.42
2024-02-13T06:19:17.173Z,3.13
2024-02-13T06:21:19.211Z,2.55
2024-02-13T06:23:21.567Z,1.45
2024-02-13T06:25:23.169Z,1.65
2024-02-13T06:27:24.761Z,1.50
2024-02-13T06:29:26.261Z,4.00
2024-02-13T06:31:32.705Z,2.15
2024-02-13T06:33:34.428Z,3.33
2024-02-13T06:35:36.076Z,3.97
2024-02-13T06:37:37.583Z,1.48
2024-02-13T06:39:39.187Z,2.15
2024-02-13T06:41:41.281Z,2.95
2024-02-13T06:43:42.821Z,4.78
2024-02-13T06:45:44.581Z,3.22
2024-02-13T06:47:46.087Z,4.22
2024-02-13T06:49:47.705Z,15.40
2024-02-13T06:51:49.294Z,18.10
2024-02-13T06:53:50.957Z,20.08
2024-02-13T06:55:52.586Z,19.02
2024-02-13T06:57:54.089Z,20.27
2024-02-13T06:59:55.741Z,16.20
2024-02-13T07:01:57.507Z,15.13
2024-02-13T07:03:59.072Z,15.25
2024-02-13T07:06:00.756Z,15.93
2024-02-13T07:08:02.529Z,14.70
2024-02-13T07:10:05.078Z,15.98
2024-02-13T07:12:06.962Z,16.25
2024-02-13T07:14:08.486Z,17.13
2024-02-13T07:16:09.980Z,13.38
2024-02-13T07:18:14.540Z,14.65
2024-02-13T07:20:16.378Z,17.77
2024-02-13T07:22:18.392Z,16.00
2024-02-13T07:24:19.865Z,13.93
2024-02-13T07:26:21.534Z,15.50
2024-02-13T07:28:23.037Z,14.23
2024-02-13T07:30:24.584Z,13.43
2024-02-13T07:32:26.252Z,16.88
2024-02-13T07:34:28.261Z,14.65
2024-02-13T07:36:29.823Z,15.25
2024-02-13T07:38:31.421Z,13.40
2024-02-13T07:40:33.241Z,13.45
2024-02-13T07:42:34.832Z,13.32
2024-02-13T07:44:36.327Z,12.57
2024-02-13T07:46:38.221Z,11.93
2024-02-13T07:48:39.780Z,12.73
2024-02-13T07:50:41.385Z,12.48
2024-02-13T07:52:42.916Z,12.45
2024-02-13T07:54:45.550Z,12.13
2024-02-13T07:56:47.089Z,12.20
2024-02-13T07:58:48.629Z,12.35
2024-02-13T08:00:50.376Z,12.60
2024-02-13T08:02:51.936Z,12.32
2024-02-13T08:04:53.705Z,12.05
2024-02-13T08:06:55.264Z,12.18
2024-02-13T08:08:56.787Z,12.18
2024-02-13T08:10:58.581Z,11.82
2024-02-13T08:13:00.226Z,12.35
2024-02-13T08:15:01.765Z,12.88
2024-02-13T08:17:06.365Z,12.45
2024-02-13T08:19:08.090Z,11.95
2024-02-13T08:21:09.694Z,12.20
2024-02-13T08:23:12.599Z,11.80
2024-02-13T08:25:14.165Z,13.27
2024-02-13T08:27:15.647Z,12.32
2024-02-13T08:29:17.234Z,11.98
2024-02-13T08:31:18.760Z,12.70
2024-02-13T08:33:20.667Z,11.73
2024-02-13T08:35:22.530Z,13.25
2024-02-13T08:37:24.315Z,11.85
2024-02-13T08:39:25.768Z,12.43
2024-02-13T08:41:27.452Z,12.77
2024-02-13T08:43:29.007Z,12.30
2024-02-13T08:45:30.515Z,11.55
2024-02-13T08:47:32.089Z,11.63
2024-02-13T08:49:33.901Z,11.07
2024-02-13T08:51:37.878Z,11.85
2024-02-13T08:53:40.504Z,11.90
2024-02-13T08:55:42.297Z,12.75
2024-02-13T08:57:43.778Z,11.95
2024-02-13T08:59:45.404Z,11.63
2024-02-13T09:01:47.068Z,12.27
2024-02-13T09:03:49.284Z,12.43
2024-02-13T09:05:50.880Z,13.07
2024-02-13T09:07:52.580Z,12.57
2024-02-13T09:09:54.070Z,11.60
2024-02-13T09:11:55.646Z,12.00
2024-02-13T09:13:57.541Z,11.63
2024-02-13T09:15:58.990Z,10.85
2024-02-13T09:18:00.757Z,12.23
2024-02-13T09:20:02.630Z,14.63
2024-02-13T09:22:04.320Z,11.45
2024-02-13T09:24:06.595Z,10.80
2024-02-13T09:26:08.238Z,9.63
2024-02-13T09:28:09.694Z,10.65
2024-02-13T09:30:11.797Z,12.90
2024-02-13T09:32:13.601Z,10.13
2024-02-13T09:34:15.334Z,9.60
2024-02-13T09:36:17.273Z,9.88
2024-02-13T09:38:19.144Z,9.30
2024-02-13T09:40:21.345Z,9.65
2024-02-13T09:42:24.851Z,8.18
2024-02-13T09:44:26.794Z,8.30
2024-02-13T09:46:28.641Z,8.43
2024-02-13T09:48:34.497Z,8.20
2024-02-13T09:50:43.943Z,8.60
2024-02-13T09:52:53.285Z,7.13
2024-02-13T09:54:54.877Z,7.85
2024-02-13T09:56:56.809Z,6.78
2024-02-13T09:58:59.830Z,7.10
2024-02-13T10:01:02.135Z,6.43
2024-02-13T10:03:04.715Z,6.50
2024-02-13T10:05:08.442Z,4.70
2024-02-13T10:09:13.061Z,5.25
2024-02-13T10:11:14.814Z,4.80
2024-02-13T10:13:16.435Z,4.50
2024-02-13T10:15:17.905Z,4.30
2024-02-13T10:17:19.468Z,4.85
2024-02-13T10:19:21.061Z,3.90
2024-02-13T10:21:25.960Z,3.55
2024-02-13T10:23:27.756Z,3.75
2024-02-13T10:25:29.306Z,3.33
2024-02-13T10:27:30.775Z,3.70
2024-02-13T10:29:44.852Z,3.50
2024-02-13T10:33:48.325Z,3.22
2024-02-13T10:35:50.189Z,3.42
2024-02-13T10:37:51.820Z,3.60
2024-02-13T10:39:55.760Z,3.47
2024-02-13T10:41:59.203Z,3.83
2024-02-13T10:44:01.126Z,3.05
2024-02-13T10:46:05.046Z,2.88
2024-02-13T10:48:31.959Z,3.30
2024-02-13T10:50:35.370Z,3.63
2024-02-13T10:52:38.314Z,3.40
2024-02-13T10:54:44.179Z,3.80
2024-02-13T10:56:46.721Z,3.50
2024-02-13T10:58:50.602Z,3.50
2024-02-13T11:00:53.321Z,4.07
2024-02-13T11:02:55.361Z,3.97
2024-02-13T11:04:58.283Z,3.70
2024-02-13T11:07:00.166Z,3.55
2024-02-13T11:09:02.810Z,3.70
2024-02-13T11:11:15.767Z,4.57
2024-02-13T11:13:20.342Z,3.72
2024-02-13T11:15:25.513Z,4.60
2024-02-13T11:17:30.911Z,4.38
2024-02-13T11:19:47.551Z,4.55
2024-02-13T11:21:51.994Z,4.88
2024-02-13T11:23:58.748Z,5.00
2024-02-13T11:26:01.303Z,4.80
2024-02-13T11:28:06.005Z,3.28
2024-02-13T11:30:07.908Z,4.47
2024-02-13T11:32:09.456Z,2.92
2024-02-13T11:34:11.835Z,3.40
2024-02-13T11:36:13.694Z,3.45
2024-02-13T11:38:18.638Z,2.88
2024-02-13T11:40:20.633Z,3.58
2024-02-13T11:42:22.299Z,3.50
2024-02-13T11:44:24.287Z,8.52
2024-02-13T11:46:25.891Z,3.72
2024-02-13T11:48:31.580Z,2.30
2024-02-13T11:50:36.794Z,3.00
2024-02-13T11:52:38.628Z,3.03
2024-02-13T11:54:40.385Z,2.65
2024-02-13T11:56:42.400Z,2.67
2024-02-13T11:58:44.146Z,2.65
2024-02-13T12:00:56.103Z,2.55
2024-02-13T12:02:58.162Z,3.15
2024-02-13T12:05:00.079Z,4.53
2024-02-13T12:07:02.020Z,3.78
2024-02-13T12:09:03.941Z,2.53
2024-02-13T12:11:05.943Z,2.70
2024-02-13T12:13:07.609Z,2.15
2024-02-13T12:15:09.801Z,2.80
2024-02-13T12:17:12.287Z,4.40
2024-02-13T12:19:15.665Z,3.30
2024-02-13T12:21:17.171Z,3.28
2024-02-13T12:23:19.175Z,3.50
2024-02-13T12:25:20.936Z,3.75
2024-02-13T12:27:22.415Z,2.50
2024-02-13T12:29:25.529Z,3.40
2024-02-13T12:31:29.365Z,2.58
2024-02-13T12:33:31.280Z,3.35
2024-02-13T12:35:33.587Z,4.25
2024-02-13T12:37:35.294Z,4.13
2024-02-13T12:39:36.927Z,3.85
2024-02-13T12:41:38.608Z,4.10
2024-02-13T12:43:40.232Z,3.80
2024-02-13T12:45:44.874Z,3.03
2024-02-13T12:47:47.210Z,3.47
2024-02-13T12:49:49.315Z,4.38
2024-02-13T12:51:50.960Z,3.85
2024-02-13T12:53:52.696Z,4.30
2024-02-13T12:55:54.327Z,3.03
2024-02-13T12:57:55.797Z,2.83
2024-02-13T12:59:57.528Z,16.05
2024-02-13T13:01:59.397Z,3.00
2024-02-13T13:04:00.915Z,12.00
2024-02-13T13:06:02.745Z,5.20
2024-02-13T13:08:04.676Z,5.60
2024-02-13T13:10:06.607Z,2.78
2024-02-13T13:12:09.813Z,3.25
2024-02-13T13:14:13.529Z,3.53
2024-02-13T13:16:14.959Z,4.10
2024-02-13T13:18:17.994Z,4.65
2024-02-13T13:20:21.288Z,3.83
2024-02-13T13:22:22.786Z,4.93
2024-02-13T13:24:24.427Z,4.07
2024-02-13T13:26:26.884Z,5.10
2024-02-13T13:28:28.514Z,4.40
2024-02-13T13:30:30.407Z,4.47
2024-02-13T13:32:32.424Z,5.97
2024-02-13T13:34:34.199Z,5.38
2024-02-13T13:36:36.422Z,6.28
2024-02-13T13:38:38.023Z,4.03
2024-02-13T13:40:40.116Z,3.72
2024-02-13T13:42:41.734Z,3.50
2024-02-13T13:44:43.227Z,3.40
2024-02-13T13:46:44.702Z,3.60
2024-02-13T13:48:46.430Z,4.82
2024-02-13T13:50:48.772Z,3.08
2024-02-13T13:52:52.160Z,4.15
2024-02-13T13:54:53.886Z,3.28
2024-02-13T13:56:55.442Z,3.45
2024-02-13T13:58:57.041Z,3.00
2024-02-13T14:01:02.061Z,3.03
2024-02-13T14:03:06.778Z,3.10
2024-02-13T14:05:08.429Z,2.90
2024-02-13T14:07:09.945Z,28.90
2024-02-13T14:09:11.739Z,10.27
2024-02-13T14:11:13.208Z,6.53
2024-02-13T14:13:14.839Z,4.55
2024-02-13T14:15:16.660Z,10.05
2024-02-13T14:17:18.257Z,4.45
2024-02-13T14:19:20.094Z,5.80
2024-02-13T14:21:22.126Z,5.72
2024-02-13T14:23:23.712Z,6.85
2024-02-13T14:25:25.353Z,6.03
2024-02-13T14:27:27.137Z,13.45
2024-02-13T14:29:28.651Z,5.63
2024-02-13T14:31:30.147Z,7.57
2024-02-13T14:33:31.939Z,6.72
2024-02-13T14:35:34.890Z,9.68
2024-02-13T14:37:36.549Z,7.65
2024-02-13T14:39:38.570Z,8.43
2024-02-13T14:41:40.110Z,7.70
2024-02-13T14:43:41.760Z,8.38
2024-02-13T14:45:43.464Z,10.65
2024-02-13T14:47:45.020Z,8.23
2024-02-13T14:49:47.138Z,5.85
2024-02-13T14:51:49.106Z,6.78
2024-02-13T14:53:50.682Z,6.30
2024-02-13T14:55:52.512Z,7.70
2024-02-13T14:58:06.059Z,3.97
2024-02-13T15:00:14.477Z,8.93
2024-02-13T15:02:16.386Z,14.65
2024-02-13T15:04:18.175Z,4.65
2024-02-13T15:06:22.796Z,10.40
2024-02-13T15:08:25.101Z,18.77
2024-02-13T15:10:26.830Z,17.85
2024-02-13T15:12:28.289Z,23.95
2024-02-13T15:14:30.185Z,32.58
2024-02-13T15:16:31.689Z,12.15
2024-02-13T15:18:34.020Z,14.25
2024-02-13T15:20:35.676Z,6.88
2024-02-13T15:22:37.306Z,9.30
2024-02-13T15:24:39.364Z,8.00
2024-02-13T15:26:40.879Z,7.07
2024-02-13T15:28:42.600Z,14.13
2024-02-13T15:30:44.194Z,19.15
2024-02-13T15:32:45.819Z,4.70
2024-02-13T15:34:47.473Z,13.18
2024-02-13T15:36:48.941Z,16.30
2024-02-13T15:38:50.622Z,17.40
2024-02-13T15:40:52.514Z,15.57
2024-02-13T15:42:53.996Z,19.70
2024-02-13T15:44:55.658Z,19.88
2024-02-13T15:46:57.211Z,14.30
2024-02-13T15:48:58.841Z,26.23
2024-02-13T15:51:00.861Z,23.25
2024-02-13T15:53:02.415Z,19.10
2024-02-13T15:55:04.070Z,19.98
2024-02-13T15:57:05.810Z,16.50
2024-02-13T15:59:07.368Z,26.52
2024-02-13T16:01:08.869Z,16.15
2024-02-13T16:03:10.689Z,21.23
2024-02-13T16:05:12.492Z,14.23
2024-02-13T16:07:18.278Z,20.98
2024-02-13T16:09:21.730Z,16.90
2024-02-13T16:11:23.317Z,24.05
2024-02-13T16:13:27.498Z,40.15
2024-02-13T16:15:30.127Z,55.25
2024-02-13T16:17:32.044Z,35.38
2024-02-13T16:19:33.653Z,25.85
2024-02-13T16:21:35.202Z,48.33
2024-02-13T16:23:37.043Z,31.95
2024-02-13T16:25:38.562Z,12.15
2024-02-13T16:27:41.158Z,35.33
2024-02-13T16:29:42.882Z,24.98
2024-02-13T16:31:44.421Z,29.25
2024-02-13T16:33:46.102Z,12.15
2024-02-13T16:35:48.100Z,19.10
2024-02-13T16:37:49.617Z,14.65
2024-02-13T16:39:51.102Z,16.52
2024-02-13T16:41:53.772Z,14.20
2024-02-13T16:43:55.320Z,16.30
2024-02-13T16:45:57.010Z,25.23
2024-02-13T16:47:58.772Z,13.95
2024-02-13T16:50:00.470Z,15.35
2024-02-13T16:52:02.797Z,20.85
2024-02-13T16:54:04.927Z,27.30
2024-02-13T16:56:06.835Z,30.02
2024-02-13T16:58:08.358Z,23.85
2024-02-13T17:00:11.054Z,19.20
2024-02-13T17:02:12.553Z,24.55
2024-02-13T17:04:14.325Z,18.75
2024-02-13T17:06:16.134Z,26.00
2024-02-13T17:08:17.787Z,14.25
2024-02-13T17:10:19.536Z,12.02
2024-02-13T17:12:21.133Z,14.45
2024-02-13T17:14:22.603Z,14.32
2024-02-13T17:16:24.233Z,38.65
2024-02-13T17:18:26.066Z,37.13
2024-02-13T17:20:27.682Z,45.85
2024-02-13T17:22:29.289Z,12.35
2024-02-13T17:24:30.990Z,9.75
2024-02-13T17:26:32.520Z,14.13
2024-02-13T17:28:34.140Z,14.13
2024-02-13T17:30:35.868Z,11.50
2024-02-13T17:32:37.425Z,9.52
2024-02-13T17:34:39.367Z,4.65
2024-02-13T17:36:41.017Z,5.50
2024-02-13T17:38:42.889Z,13.57
2024-02-13T17:40:44.581Z,5.85
2024-02-13T17:42:46.047Z,6.35
2024-02-13T17:44:47.713Z,14.13
2024-02-13T17:46:49.387Z,20.48
2024-02-13T17:48:51.057Z,19.33
2024-02-13T17:50:52.858Z,12.20
2024-02-13T17:52:54.346Z,20.20
2024-02-13T17:54:55.946Z,30.85
2024-02-13T17:56:57.608Z,21.50
2024-02-13T17:58:59.268Z,13.95
2024-02-13T18:01:00.785Z,19.02
2024-02-13T18:03:02.567Z,13.50
2024-02-13T18:05:04.244Z,14.52
2024-02-13T18:07:05.781Z,8.48
2024-02-13T18:09:07.707Z,13.27
2024-02-13T18:11:09.376Z,11.45
2024-02-13T18:13:10.838Z,12.20
2024-02-13T18:15:12.613Z,11.07
2024-02-13T18:17:14.226Z,10.85
2024-02-13T18:19:15.946Z,8.70
2024-02-13T18:21:17.784Z,17.08
2024-02-13T18:23:19.527Z,12.68
2024-02-13T18:25:21.040Z,16.73
2024-02-13T18:27:22.951Z,12.15
2024-02-13T18:29:24.579Z,18.27
2024-02-13T18:31:26.053Z,16.75
2024-02-13T18:33:27.788Z,12.38
2024-02-13T18:35:29.550Z,19.88
2024-02-13T18:37:31.051Z,17.63
2024-02-13T18:39:32.648Z,9.70
2024-02-13T18:41:34.333Z,12.32
2024-02-13T18:43:35.840Z,13.02
2024-02-13T18:45:37.338Z,13.60
2024-02-13T18:47:38.926Z,12.45
2024-02-13T18:49:40.495Z,14.32
2024-02-13T18:51:42.109Z,23.15
2024-02-13T18:53:43.649Z,13.50
2024-02-13T18:55:45.108Z,10.13
2024-02-13T18:57:46.849Z,9.48
2024-02-13T18:59:48.814Z,11.10
2024-02-13T19:01:50.442Z,9.60
2024-02-13T19:03:52.125Z,11.48
2024-02-13T19:05:53.831Z,12.43
2024-02-13T19:07:55.434Z,13.63
2024-02-13T19:09:57.369Z,16.85
2024-02-13T19:11:59.012Z,19.80
2024-02-13T19:14:00.687Z,20.20
2024-02-13T19:16:02.167Z,14.48
2024-02-13T19:18:04.260Z,23.60
2024-02-13T19:20:06.642Z,26.55
2024-02-13T19:22:08.152Z,22.73
2024-02-13T19:24:10.457Z,51.45
2024-02-13T19:26:11.946Z,28.50
2024-02-13T19:28:13.687Z,27.55
2024-02-13T19:30:15.398Z,22.08
2024-02-13T19:32:16.869Z,18.08
2024-02-13T19:34:18.777Z,20.10
2024-02-13T19:36:20.671Z,16.42
2024-02-13T19:38:22.238Z,14.63
2024-02-13T19:40:23.928Z,10.73
2024-02-13T19:42:25.541Z,9.95
2024-02-13T19:44:27.062Z,14.70
2024-02-13T19:46:28.665Z,18.40
2024-02-13T19:48:30.459Z,19.88
2024-02-13T19:50:32.110Z,33.83
2024-02-13T19:52:33.681Z,37.05
2024-02-13T19:54:35.196Z,23.33
2024-02-13T19:56:36.877Z,23.55
2024-02-13T19:58:38.381Z,25.20
2024-02-13T20:00:39.860Z,19.15
2024-02-13T20:02:41.376Z,16.75
2024-02-13T20:04:42.971Z,21.55
2024-02-13T20:06:44.997Z,14.88
2024-02-13T20:08:46.598Z,24.27
2024-02-13T20:10:48.188Z,15.77
2024-02-13T20:12:50.068Z,15.45
2024-02-13T20:14:51.600Z,13.57
2024-02-13T20:16:53.094Z,18.58
2024-02-13T20:18:54.946Z,29.85
2024-02-13T20:20:56.521Z,24.33
2024-02-13T20:22:58.129Z,23.90
2024-02-13T20:24:59.604Z,23.08
2024-02-13T20:27:02.001Z,26.98
2024-02-13T20:29:03.642Z,19.05
2024-02-13T20:31:05.156Z,19.08
2024-02-13T20:33:06.714Z,20.98
2024-02-13T20:35:08.634Z,14.75
2024-02-13T20:37:10.780Z,14.95
2024-02-13T20:39:12.309Z,22.50
2024-02-13T20:41:13.995Z,66.15
2024-02-13T20:43:15.650Z,38.47
2024-02-13T20:45:22.378Z,36.13
2024-02-13T20:47:25.655Z,46.95
2024-02-13T20:49:27.277Z,31.92
2024-02-13T20:51:32.833Z,57.28
2024-02-13T20:53:34.481Z,51.90
2024-02-13T20:55:35.973Z,49.30
2024-02-13T20:57:37.423Z,42.10
2024-02-13T20:59:39.051Z,46.17
2024-02-13T21:01:40.695Z,58.15
2024-02-13T21:03:42.168Z,44.90
2024-02-13T21:05:43.708Z,47.65
2024-02-13T21:07:45.337Z,44.75
2024-02-13T21:09:47.419Z,56.10
2024-02-13T21:11:49.066Z,54.08
2024-02-13T21:13:50.697Z,49.75
2024-02-13T21:15:52.164Z,46.50
2024-02-13T21:17:53.872Z,50.95
2024-02-13T21:19:55.595Z,23.40
2024-02-13T21:21:57.118Z,24.95
2024-02-13T21:23:58.648Z,19.85
2024-02-13T21:26:00.129Z,21.35
2024-02-13T21:28:01.575Z,23.23
2024-02-13T21:30:03.777Z,29.90
2024-02-13T21:32:05.620Z,32.42
2024-02-13T21:34:07.563Z,28.92
2024-02-13T21:36:09.664Z,22.20
2024-02-13T21:38:14.373Z,21.00
2024-02-13T21:40:16.262Z,12.90
2024-02-13T21:42:18.002Z,9.98
2024-02-13T21:44:19.551Z,12.63
2024-02-13T21:46:21.038Z,10.60
2024-02-13T21:48:22.919Z,10.40
2024-02-13T21:50:24.761Z,10.15
2024-02-13T21:52:26.289Z,14.50
2024-02-13T21:54:28.079Z,13.30
2024-02-13T21:56:29.711Z,10.90
2024-02-13T21:58:31.241Z,15.15
2024-02-13T22:00:32.981Z,17.35
2024-02-13T22:02:34.887Z,16.98
2024-02-13T22:04:36.428Z,12.90
2024-02-13T22:06:38.025Z,10.10
2024-02-13T22:08:39.737Z,11.52
2024-02-13T22:10:41.212Z,8.40
2024-02-13T22:12:45.247Z,9.43
2024-02-13T22:14:48.669Z,12.63
2024-02-13T22:16:50.129Z,9.90
2024-02-13T22:18:51.979Z,22.17
2024-02-13T22:20:54.095Z,12.77
2024-02-13T22:22:55.718Z,18.67
2024-02-13T22:24:57.373Z,21.52
2024-02-13T22:26:59.317Z,13.38
2024-02-13T22:29:00.834Z,18.90
2024-02-13T22:31:02.468Z,12.57
2024-02-13T22:33:04.257Z,16.17
2024-02-13T22:35:06.404Z,13.57
2024-02-13T22:37:08.100Z,13.82
2024-02-13T22:39:09.848Z,43.28
2024-02-13T22:41:11.597Z,23.92
2024-02-13T22:43:13.091Z,16.80
2024-02-13T22:45:14.650Z,15.80
2024-02-13T22:47:16.262Z,11.75
2024-02-13T22:49:17.767Z,11.65
2024-02-13T22:51:19.501Z,11.93
2024-02-13T22:53:21.102Z,11.23
2024-02-13T22:55:22.683Z,11.82
2024-02-13T22:57:24.420Z,22.27
2024-02-13T22:59:26.042Z,39.75
2024-02-13T23:01:27.647Z,40.70
2024-02-13T23:03:35.413Z,50.88
2024-02-13T23:05:37.124Z,72.63
2024-02-13T23:07:45.328Z,72.60
2024-02-13T23:09:47.331Z,16.92
2024-02-13T23:11:48.976Z,15.88
2024-02-13T23:13:51.532Z,27.50
2024-02-13T23:15:53.717Z,24.02
2024-02-13T23:17:55.515Z,29.73
2024-02-13T23:19:57.132Z,25.17
2024-02-13T23:21:58.757Z,31.20
2024-02-13T23:24:00.690Z,98.65
2024-02-13T23:26:02.390Z,73.97
2024-02-13T23:28:04.662Z,54.83
2024-02-13T23:30:07.314Z,51.95
2024-02-13T23:32:08.835Z,42.78
2024-02-13T23:34:10.672Z,35.95
2024-02-13T23:36:12.348Z,39.30
2024-02-13T23:38:13.938Z,34.20
2024-02-13T23:40:17.765Z,35.47
2024-02-13T23:42:19.420Z,26.30
2024-02-13T23:44:20.857Z,32.05
2024-02-13T23:46:22.476Z,26.20
2024-02-13T23:48:24.207Z,28.15
2024-02-13T23:50:25.804Z,30.23
2024-02-13T23:52:27.429Z,30.27
2024-02-13T23:54:29.006Z,31.20
2024-02-13T23:56:30.511Z,32.17
2024-02-13T23:58:32.260Z,27.55
